Terminal Aerodrome Forecast
Issued by NWS

Home | Current Version | Previous Version | Text Only | Print | Product List | Glossary On
Versions: 1 2 3 4 5 6 7 8 9 10 11 12 13 14
000
FTUS45 KRIW 061740
TAFJAC
TAF
KJAC 061740Z 0618/0718 VRB05KT P6SM VCTS BKN070CB
     FM070300 33006KT P6SM VCSH BKN080
     FM070700 VRB04KT P6SM SCT070
     FM071100 VRB05KT P6SM FEW080
     FM071600 15006KT P6SM SCT080 SCT120
      AMD LTD TO CLD VIS AND WIND=

USA.gov is the U.S. government's official web portal to all federal, state and local government web resources and services.